createdAt,value
2022-12-18T00:00:43.997Z,1024.8
2022-12-18T00:05:26.412Z,1024.7
2022-12-18T00:10:32.822Z,1024.8
2022-12-18T00:15:39.177Z,1024.7
2022-12-18T00:20:45.801Z,1024.8
2022-12-18T00:26:16.243Z,1024.9
2022-12-18T00:30:49.653Z,1025.0
2022-12-18T00:36:06.104Z,1024.9
2022-12-18T00:41:02.484Z,1024.9
2022-12-18T00:46:18.930Z,1024.9
2022-12-18T00:51:15.271Z,1024.9
2022-12-18T00:56:21.647Z,1024.8
2022-12-18T01:01:38.295Z,1024.8
2022-12-18T01:06:45.766Z,1024.9
2022-12-18T01:11:52.019Z,1024.9
2022-12-18T01:16:59.514Z,1024.8
2022-12-18T01:22:09.506Z,1024.8
2022-12-18T01:27:15.886Z,1024.8
2022-12-18T01:32:22.284Z,1024.8
2022-12-18T01:37:28.666Z,1024.9
2022-12-18T01:42:35.087Z,1024.8
2022-12-18T01:47:41.443Z,1025.0
2022-12-18T01:52:51.582Z,1025.0
2022-12-18T01:57:57.968Z,1025.0
2022-12-18T02:03:04.572Z,1024.9
2022-12-18T02:08:10.947Z,1024.9
2022-12-18T02:13:17.503Z,1024.9
2022-12-18T02:18:23.724Z,1024.9
2022-12-18T02:23:30.175Z,1024.8
2022-12-18T02:29:20.702Z,1024.8
2022-12-18T02:33:42.896Z,1024.8
2022-12-18T02:38:39.252Z,1024.8
2022-12-18T02:44:15.780Z,1024.8
2022-12-18T02:49:23.041Z,1024.7
2022-12-18T02:53:59.252Z,1024.7
2022-12-18T02:59:40.762Z,1024.7
2022-12-18T03:04:26.333Z,1024.6
2022-12-18T03:09:32.606Z,1024.6
2022-12-18T03:14:29.536Z,1024.6
2022-12-18T03:20:06.093Z,1024.7
2022-12-18T03:25:16.359Z,1024.8
2022-12-18T03:29:58.740Z,1024.6
2022-12-18T03:35:05.158Z,1024.7
2022-12-18T03:40:01.716Z,1024.8
2022-12-18T03:45:07.970Z,1024.5
2022-12-18T03:50:15.071Z,1024.6
2022-12-18T03:55:31.611Z,1024.6
2022-12-18T04:01:12.629Z,1024.6
2022-12-18T04:06:19.995Z,1024.6
2022-12-18T04:12:38.576Z,1024.6
2022-12-18T04:16:32.700Z,1024.6
2022-12-18T04:21:59.195Z,1024.6
2022-12-18T04:26:45.714Z,1024.6
2022-12-18T04:31:52.164Z,1024.5
2022-12-18T04:36:58.478Z,1024.4
2022-12-18T04:41:54.844Z,1024.5
2022-12-18T04:47:40.266Z,1024.5
2022-12-18T04:52:42.529Z,1024.5
2022-12-18T04:57:19.151Z,1024.5
2022-12-18T05:02:35.826Z,1024.5
2022-12-18T05:07:42.146Z,1024.4
2022-12-18T05:12:37.382Z,1024.2
2022-12-18T05:17:54.842Z,1024.2
2022-12-18T05:23:01.362Z,1024.2
2022-12-18T05:28:07.787Z,1024.4
2022-12-18T05:33:14.271Z,1024.6
2022-12-18T05:38:10.825Z,1024.5
2022-12-18T05:43:31.224Z,1024.5
2022-12-18T05:48:57.642Z,1024.6
2022-12-18T05:53:40.593Z,1024.6
2022-12-18T05:59:10.486Z,1024.6
2022-12-18T06:03:52.927Z,1024.7
2022-12-18T06:08:59.522Z,1024.8
2022-12-18T06:14:06.030Z,1024.8
2022-12-18T06:19:12.527Z,1024.8
2022-12-18T06:24:19.014Z,1024.9
2022-12-18T06:29:24.308Z,1025.1
2022-12-18T06:34:45.719Z,1025.0
2022-12-18T06:40:02.262Z,1025.1
2022-12-18T06:44:34.019Z,1024.9
2022-12-18T06:49:51.568Z,1024.9
2022-12-18T06:55:00.147Z,1024.9
2022-12-18T07:00:06.762Z,1024.9
2022-12-18T07:05:13.013Z,1024.8
2022-12-18T07:10:44.690Z,1024.7
2022-12-18T07:15:25.994Z,1024.7
2022-12-18T07:20:22.244Z,1024.5
2022-12-18T07:25:38.667Z,1024.5
2022-12-18T07:30:45.230Z,1024.4
2022-12-18T07:35:51.540Z,1024.4
2022-12-18T07:40:47.974Z,1024.5
2022-12-18T07:46:04.569Z,1024.6
2022-12-18T07:51:10.773Z,1024.6
2022-12-18T07:56:31.846Z,1024.6
2022-12-18T08:01:12.674Z,1024.5
2022-12-18T08:06:29.931Z,1024.5
2022-12-18T08:11:36.325Z,1024.6
2022-12-18T08:16:32.860Z,1024.6
2022-12-18T08:21:48.094Z,1024.5
2022-12-18T08:27:27.974Z,1024.5
2022-12-18T08:32:05.717Z,1024.5
2022-12-18T08:37:25.888Z,1024.4
2022-12-18T08:42:53.375Z,1024.3
2022-12-18T08:48:00.880Z,1024.2
2022-12-18T08:53:07.136Z,1024.1
2022-12-18T08:58:13.522Z,1024.0
2022-12-18T09:03:20.185Z,1024.1
2022-12-18T09:08:40.835Z,1024.0
2022-12-18T09:13:46.709Z,1024.2
2022-12-18T09:18:29.158Z,1024.2
2022-12-18T09:23:45.497Z,1024.3
2022-12-18T09:29:12.007Z,1024.3
2022-12-18T09:33:59.612Z,1024.3
2022-12-18T09:39:08.453Z,1024.3
2022-12-18T09:44:02.328Z,1024.1
2022-12-18T09:49:18.854Z,1024.1
2022-12-18T09:54:25.121Z,1024.0
2022-12-18T09:59:31.498Z,1023.9
2022-12-18T10:04:38.108Z,1023.8
2022-12-18T10:09:34.240Z,1023.8
2022-12-18T10:14:50.662Z,1023.7
2022-12-18T10:27:04.972Z,1023.7
2022-12-18T10:38:39.939Z,1023.2
2022-12-18T10:43:51.081Z,1023.1
2022-12-18T10:48:52.320Z,1023.0
2022-12-18T10:53:59.726Z,1023.0
2022-12-18T10:59:30.463Z,1022.9
2022-12-18T11:04:03.033Z,1022.8
2022-12-18T11:09:13.911Z,1022.8
2022-12-18T11:14:15.456Z,1022.8
2022-12-18T11:19:21.969Z,1022.8
2022-12-18T11:24:38.279Z,1022.6
2022-12-18T11:29:34.594Z,1022.4
2022-12-18T11:34:55.935Z,1022.4
2022-12-18T11:45:41.003Z,1022.5
2022-12-18T11:50:48.507Z,1022.5
2022-12-18T11:56:11.587Z,1022.3
2022-12-18T12:01:05.510Z,1022.0
2022-12-18T12:06:12.007Z,1022.0
2022-12-18T12:16:24.778Z,1022.0
2022-12-18T12:27:57.807Z,1021.7
2022-12-18T12:33:05.838Z,1021.4
2022-12-18T12:43:20.291Z,1021.3
2022-12-18T12:48:27.797Z,1021.3
2022-12-18T12:53:54.240Z,1021.3
2022-12-18T12:59:04.746Z,1021.2
2022-12-18T13:03:37.178Z,1021.0
2022-12-18T13:08:53.558Z,1021.0
2022-12-18T13:13:59.965Z,1021.0
2022-12-18T13:19:06.473Z,1020.9
2022-12-18T13:24:02.725Z,1020.9
2022-12-18T13:29:09.119Z,1021.0
2022-12-18T13:34:39.679Z,1020.9
2022-12-18T14:25:07.615Z,1020.3
2022-12-18T14:44:50.700Z,1020.0
2022-12-18T14:49:48.239Z,1019.9
2022-12-18T14:56:58.845Z,1019.8
2022-12-18T15:04:22.754Z,1019.7
2022-12-18T15:33:31.109Z,1019.5
2022-12-18T15:34:45.947Z,1019.4
2022-12-18T15:50:02.970Z,1019.4
2022-12-18T15:51:09.005Z,1019.4
2022-12-18T15:56:40.487Z,1019.4
2022-12-18T16:03:16.088Z,1019.4
2022-12-18T16:05:22.171Z,1019.3
2022-12-18T16:05:28.076Z,1019.2
2022-12-18T16:10:35.444Z,1019.0
2022-12-18T16:15:41.881Z,1019.1
2022-12-18T16:20:54.176Z,1019.1
2022-12-18T16:25:54.005Z,1019.0
2022-12-18T16:30:51.288Z,1019.1
2022-12-18T16:36:07.705Z,1018.9
2022-12-18T16:41:14.168Z,1018.7
2022-12-18T16:46:20.625Z,1018.7
2022-12-18T16:51:17.510Z,1018.9
2022-12-18T16:56:29.841Z,1018.7
2022-12-18T17:04:30.564Z,1018.7
2022-12-18T17:06:46.880Z,1018.9
2022-12-18T17:11:53.144Z,1018.7
2022-12-18T17:17:20.338Z,1018.5
2022-12-18T17:22:06.034Z,1018.4
2022-12-18T17:27:12.272Z,1018.5
2022-12-18T17:32:18.653Z,1018.5
2022-12-18T17:37:25.712Z,1018.5
2022-12-18T17:42:31.983Z,1018.5
2022-12-18T17:47:38.520Z,1018.3
2022-12-18T17:52:45.021Z,1018.4
2022-12-18T17:58:16.338Z,1018.3
2022-12-18T18:02:59.148Z,1018.3
2022-12-18T18:08:05.208Z,1018.4
2022-12-18T18:13:36.687Z,1018.2
2022-12-18T18:18:17.927Z,1018.3
2022-12-18T18:23:24.543Z,1018.3
2022-12-18T18:28:30.779Z,1018.2
2022-12-18T18:33:37.261Z,1018.3
2022-12-18T18:38:48.364Z,1018.3
2022-12-18T18:43:50.508Z,1018.2
2022-12-18T18:49:55.994Z,1018.2
2022-12-18T18:55:03.601Z,1018.2
2022-12-18T18:59:49.862Z,1018.4
2022-12-18T19:04:56.235Z,1018.5
2022-12-18T19:10:03.911Z,1018.4
2022-12-18T19:15:09.200Z,1018.4
2022-12-18T19:20:15.659Z,1018.4
2022-12-18T19:25:41.658Z,1018.5
2022-12-18T19:30:58.921Z,1018.3
2022-12-18T19:35:34.925Z,1018.3
2022-12-18T19:40:41.332Z,1018.2
2022-12-18T19:46:07.944Z,1018.2
2022-12-18T19:51:54.266Z,1018.2
2022-12-18T19:56:00.533Z,1018.0
2022-12-18T20:01:28.246Z,1018.1
2022-12-18T20:06:14.281Z,1018.1
2022-12-18T20:11:21.821Z,1018.0
2022-12-18T20:16:48.418Z,1018.1
2022-12-18T20:21:54.911Z,1018.1
2022-12-18T20:26:55.309Z,1018.0
2022-12-18T20:31:47.696Z,1018.0
2022-12-18T20:38:26.279Z,1018.0
2022-12-18T20:41:50.407Z,1018.0
2022-12-18T20:48:39.000Z,1018.0
2022-12-18T20:52:13.241Z,1018.1
2022-12-18T20:58:55.020Z,1018.1
2022-12-18T21:03:25.048Z,1018.1
2022-12-18T21:08:44.483Z,1018.1
2022-12-18T21:13:52.499Z,1018.1
2022-12-18T21:19:23.148Z,1018.2
2022-12-18T21:24:05.391Z,1018.1
2022-12-18T21:29:11.849Z,1018.1
2022-12-18T21:34:18.241Z,1018.1
2022-12-18T21:39:44.782Z,1018.2
2022-12-18T21:44:31.024Z,1017.9
2022-12-18T21:49:37.479Z,1017.9
2022-12-18T21:54:43.866Z,1018.1
2022-12-18T21:59:40.505Z,1018.0
2022-12-18T22:04:55.961Z,1017.9
2022-12-18T22:15:08.868Z,1017.9
2022-12-18T22:20:16.173Z,1017.7
2022-12-18T22:25:12.529Z,1017.7
2022-12-18T22:30:29.073Z,1017.6
2022-12-18T22:35:35.317Z,1017.6
2022-12-18T22:40:31.771Z,1017.5
2022-12-18T22:45:48.465Z,1017.4
2022-12-18T22:50:58.513Z,1017.4
2022-12-18T22:56:25.473Z,1017.4
2022-12-18T23:01:08.191Z,1017.2
2022-12-18T23:06:14.522Z,1017.1
2022-12-18T23:11:24.929Z,1017.1
2022-12-18T23:16:27.499Z,1017.1
2022-12-18T23:21:33.706Z,1016.8
2022-12-18T23:26:40.080Z,1016.7
2022-12-18T23:31:46.676Z,1016.7
2022-12-18T23:36:55.982Z,1016.7
2022-12-18T23:41:59.274Z,1016.6
2022-12-18T23:47:05.739Z,1016.4
2022-12-18T23:52:12.093Z,1016.3
2022-12-18T23:57:42.708Z,1016.2
